createdAt,value
2019-05-15T00:00:12.078Z,0.00
2019-05-15T00:01:12.068Z,0.00
2019-05-15T00:02:12.057Z,0.00
2019-05-15T00:03:12.050Z,0.00
2019-05-15T00:04:12.041Z,0.00
2019-05-15T00:05:12.036Z,0.00
2019-05-15T00:06:12.020Z,0.00
2019-05-15T00:07:12.013Z,0.00
2019-05-15T00:08:12.008Z,0.00
2019-05-15T00:09:11.993Z,0.00
2019-05-15T00:10:11.985Z,0.00
2019-05-15T00:11:11.977Z,0.00
2019-05-15T00:12:11.967Z,0.00
2019-05-15T00:13:11.958Z,0.00
2019-05-15T00:14:11.949Z,0.00
2019-05-15T00:15:11.939Z,0.00
2019-05-15T00:16:11.928Z,0.00
2019-05-15T00:17:11.919Z,0.00
2019-05-15T00:18:11.912Z,0.00
2019-05-15T00:19:11.904Z,0.00
2019-05-15T00:20:11.891Z,0.00
2019-05-15T00:21:11.888Z,0.00
2019-05-15T00:22:11.878Z,0.00
2019-05-15T00:23:11.869Z,0.00
2019-05-15T00:24:13.224Z,0.00
2019-05-15T00:25:11.848Z,0.00
2019-05-15T00:26:11.838Z,0.00
2019-05-15T00:27:11.828Z,0.00
2019-05-15T00:28:11.816Z,0.00
2019-05-15T00:29:16.116Z,0.00
2019-05-15T00:30:11.799Z,0.00
2019-05-15T00:31:11.789Z,0.00
2019-05-15T00:32:11.780Z,0.00
2019-05-15T00:33:11.771Z,0.00
2019-05-15T00:34:12.725Z,0.00
2019-05-15T00:35:11.752Z,0.00
2019-05-15T00:36:11.744Z,0.00
2019-05-15T00:37:11.740Z,0.00
2019-05-15T00:38:11.724Z,0.00
2019-05-15T00:39:11.716Z,0.00
2019-05-15T00:40:11.716Z,0.00
2019-05-15T00:41:11.697Z,0.00
2019-05-15T00:42:11.687Z,0.00
2019-05-15T00:43:11.677Z,0.00
2019-05-15T00:44:11.669Z,0.00
2019-05-15T00:45:11.659Z,0.00
2019-05-15T00:46:11.649Z,0.00
2019-05-15T00:47:11.640Z,0.00
2019-05-15T00:48:11.631Z,0.00
2019-05-15T00:49:11.633Z,0.00
2019-05-15T00:50:11.613Z,0.00
2019-05-15T00:51:14.639Z,0.00
2019-05-15T00:52:12.317Z,0.00
2019-05-15T00:53:11.583Z,0.00
2019-05-15T00:54:11.574Z,0.00
2019-05-15T00:55:11.565Z,0.00
2019-05-15T00:56:11.554Z,0.00
2019-05-15T00:57:11.545Z,0.00
2019-05-15T00:58:11.532Z,0.00
2019-05-15T00:59:23.140Z,0.00
2019-05-15T01:00:11.520Z,0.00
2019-05-15T01:01:11.509Z,0.00
2019-05-15T01:02:11.499Z,0.00
2019-05-15T01:03:11.489Z,0.00
2019-05-15T01:04:11.480Z,0.00
2019-05-15T01:05:11.472Z,0.00
2019-05-15T01:06:11.461Z,0.00
2019-05-15T01:07:11.454Z,0.00
2019-05-15T01:08:11.442Z,0.00
2019-05-15T01:09:11.440Z,0.00
2019-05-15T01:10:11.425Z,0.00
2019-05-15T01:11:11.415Z,0.00
2019-05-15T01:12:11.401Z,0.00
2019-05-15T01:13:11.416Z,0.00
2019-05-15T01:14:12.129Z,0.00
2019-05-15T01:15:11.374Z,0.00
2019-05-15T01:16:11.370Z,0.00
2019-05-15T01:17:11.363Z,0.00
2019-05-15T01:18:11.349Z,0.00
2019-05-15T01:19:11.340Z,0.00
2019-05-15T01:20:11.327Z,0.00
2019-05-15T01:21:11.319Z,0.00
2019-05-15T01:22:11.313Z,0.00
2019-05-15T01:23:11.314Z,0.00
2019-05-15T01:24:11.290Z,0.00
2019-05-15T01:25:11.284Z,0.00
2019-05-15T01:26:11.268Z,0.00
2019-05-15T01:27:11.261Z,0.00
2019-05-15T01:28:11.251Z,0.00
2019-05-15T01:29:11.250Z,0.00
2019-05-15T01:30:11.232Z,0.00
2019-05-15T01:31:11.224Z,0.00
2019-05-15T01:32:11.214Z,0.00
2019-05-15T01:33:11.211Z,0.00
2019-05-15T01:34:11.193Z,0.00
2019-05-15T01:35:11.187Z,0.00
2019-05-15T01:36:11.175Z,0.00
2019-05-15T01:37:11.166Z,0.00
2019-05-15T01:38:11.154Z,0.00
2019-05-15T01:39:11.143Z,0.00
2019-05-15T01:40:11.140Z,0.00
2019-05-15T01:41:11.128Z,0.00
2019-05-15T01:42:11.123Z,0.00
2019-05-15T01:43:11.108Z,0.00
2019-05-15T01:44:11.097Z,0.00
2019-05-15T01:45:11.088Z,0.00
2019-05-15T01:46:11.078Z,0.00
2019-05-15T01:47:11.071Z,0.00
2019-05-15T01:48:11.059Z,0.00
2019-05-15T01:49:11.048Z,0.00
2019-05-15T01:50:11.043Z,0.00
2019-05-15T01:51:11.040Z,0.00
2019-05-15T01:52:11.020Z,0.00
2019-05-15T01:53:11.017Z,0.00
2019-05-15T01:54:11.003Z,0.00
2019-05-15T01:55:10.991Z,0.00
2019-05-15T01:56:10.990Z,0.00
2019-05-15T01:57:10.974Z,0.00
2019-05-15T01:58:10.966Z,0.00
2019-05-15T01:59:10.955Z,0.00
2019-05-15T02:00:10.945Z,0.00
2019-05-15T02:01:10.936Z,0.00
2019-05-15T02:02:10.925Z,0.00
2019-05-15T02:03:10.931Z,0.00
2019-05-15T02:04:10.903Z,0.00
2019-05-15T02:05:10.895Z,0.00
2019-05-15T02:06:10.895Z,0.00
2019-05-15T02:07:10.883Z,0.00
2019-05-15T02:08:10.865Z,0.00
2019-05-15T02:09:10.858Z,0.00
2019-05-15T02:10:10.846Z,0.00
2019-05-15T02:11:10.837Z,0.00
2019-05-15T02:12:10.825Z,0.00
2019-05-15T02:13:10.816Z,0.00
2019-05-15T02:14:10.809Z,0.00
2019-05-15T02:15:10.796Z,0.00
2019-05-15T02:16:10.785Z,0.00
2019-05-15T02:17:10.784Z,0.00
2019-05-15T02:18:10.769Z,0.00
2019-05-15T02:19:10.761Z,0.00
2019-05-15T02:20:10.749Z,0.00
2019-05-15T02:21:10.737Z,0.00
2019-05-15T02:22:10.732Z,0.00
2019-05-15T02:23:12.087Z,0.00
2019-05-15T02:24:10.707Z,0.00
2019-05-15T02:25:10.702Z,0.00
2019-05-15T02:26:10.688Z,0.00
2019-05-15T02:27:10.719Z,0.00
2019-05-15T02:28:10.661Z,0.00
2019-05-15T02:29:13.769Z,0.00
2019-05-15T02:30:22.101Z,0.00
2019-05-15T02:31:10.806Z,0.00
2019-05-15T02:32:10.634Z,0.00
2019-05-15T02:33:11.182Z,0.00
2019-05-15T02:34:10.621Z,0.00
2019-05-15T02:35:10.608Z,0.00
2019-05-15T02:36:10.608Z,0.00
2019-05-15T02:37:10.591Z,0.00
2019-05-15T02:38:15.188Z,0.00
2019-05-15T02:39:10.551Z,0.00
2019-05-15T02:40:10.684Z,0.00
2019-05-15T02:41:10.574Z,0.00
2019-05-15T02:42:10.529Z,0.00
2019-05-15T02:43:10.762Z,0.00
2019-05-15T02:44:11.059Z,0.00
2019-05-15T02:45:10.824Z,0.00
2019-05-15T02:46:10.516Z,0.00
2019-05-15T02:47:10.479Z,0.00
2019-05-15T02:48:10.470Z,0.00
2019-05-15T02:49:10.461Z,0.00
2019-05-15T02:50:11.201Z,0.00
2019-05-15T02:51:10.490Z,0.00
2019-05-15T02:52:10.437Z,0.00
2019-05-15T02:53:10.611Z,0.00
2019-05-15T02:54:10.725Z,0.00
2019-05-15T02:55:10.404Z,0.00
2019-05-15T02:56:10.393Z,0.00
2019-05-15T02:57:10.390Z,0.00
2019-05-15T02:58:10.685Z,0.00
2019-05-15T02:59:10.365Z,0.00
2019-05-15T03:00:11.069Z,0.00
2019-05-15T03:01:10.344Z,0.00
2019-05-15T03:02:10.538Z,0.00
2019-05-15T03:03:10.325Z,0.00
2019-05-15T03:04:10.314Z,0.00
2019-05-15T03:05:10.326Z,0.00
2019-05-15T03:06:10.361Z,0.00
2019-05-15T03:07:10.284Z,0.00
2019-05-15T03:08:10.279Z,5.63
2019-05-15T03:09:10.269Z,5.63
2019-05-15T03:10:10.255Z,5.63
2019-05-15T03:11:10.279Z,5.63
2019-05-15T03:12:10.235Z,5.63
2019-05-15T03:13:10.376Z,5.63
2019-05-15T03:14:10.213Z,5.63
2019-05-15T03:15:10.293Z,5.63
2019-05-15T03:16:10.559Z,5.63
2019-05-15T03:17:10.184Z,5.63
2019-05-15T03:18:10.385Z,11.25
2019-05-15T03:19:10.244Z,11.25
2019-05-15T03:20:10.896Z,11.25
2019-05-15T03:21:10.191Z,11.25
2019-05-15T03:22:10.171Z,11.25
2019-05-15T03:23:10.359Z,11.25
2019-05-15T03:24:10.424Z,11.25
2019-05-15T03:25:10.788Z,11.25
2019-05-15T03:26:10.109Z,16.88
2019-05-15T03:27:10.096Z,16.88
2019-05-15T03:28:10.762Z,16.88
2019-05-15T03:29:10.138Z,16.88
2019-05-15T03:30:13.607Z,16.88
2019-05-15T03:31:31.071Z,16.88
2019-05-15T03:32:25.449Z,22.50
2019-05-15T03:33:18.529Z,22.50
2019-05-15T03:34:20.788Z,22.50
2019-05-15T03:35:14.184Z,22.50
2019-05-15T03:36:13.087Z,28.13
2019-05-15T03:37:12.080Z,28.13
2019-05-15T03:38:09.973Z,28.13
2019-05-15T03:39:09.969Z,28.13
2019-05-15T03:40:10.713Z,33.75
2019-05-15T03:41:10.583Z,33.75
2019-05-15T03:42:09.932Z,28.13
2019-05-15T03:43:09.926Z,28.13
2019-05-15T03:44:09.948Z,28.13
2019-05-15T03:45:10.580Z,33.75
2019-05-15T03:46:09.894Z,33.75
2019-05-15T03:47:09.898Z,33.75
2019-05-15T03:48:09.874Z,33.75
2019-05-15T03:49:09.864Z,33.75
2019-05-15T03:50:09.969Z,39.38
2019-05-15T03:51:09.860Z,39.38
2019-05-15T03:52:10.187Z,39.38
2019-05-15T03:53:10.662Z,39.38
2019-05-15T03:54:09.822Z,39.38
2019-05-15T03:55:11.171Z,45.00
2019-05-15T03:56:10.097Z,45.00
2019-05-15T03:57:10.010Z,45.00
2019-05-15T03:58:10.320Z,45.00
2019-05-15T03:59:09.756Z,45.00
2019-05-15T04:00:10.031Z,50.63
2019-05-15T04:01:27.702Z,50.63
2019-05-15T04:02:09.756Z,50.63
2019-05-15T04:03:10.758Z,50.63
2019-05-15T04:04:09.801Z,50.63
2019-05-15T04:05:11.961Z,56.25
2019-05-15T04:06:10.222Z,56.25
2019-05-15T04:07:09.688Z,56.25
2019-05-15T04:08:10.893Z,56.25
2019-05-15T04:09:09.946Z,73.13
2019-05-15T04:10:10.249Z,101.25
2019-05-15T04:11:09.649Z,112.50
2019-05-15T04:12:09.688Z,129.38
2019-05-15T04:13:09.984Z,123.75
2019-05-15T04:14:10.311Z,95.63
2019-05-15T04:15:10.203Z,73.13
2019-05-15T04:16:10.452Z,67.50
2019-05-15T04:17:09.637Z,67.50
2019-05-15T04:18:09.934Z,67.50
2019-05-15T04:19:09.917Z,73.13
2019-05-15T04:20:09.961Z,73.13
2019-05-15T04:21:09.752Z,78.75
2019-05-15T04:22:09.628Z,78.75
2019-05-15T04:23:10.387Z,84.38
2019-05-15T04:24:09.614Z,78.75
2019-05-15T04:25:10.003Z,84.38
2019-05-15T04:26:09.644Z,90.00
2019-05-15T04:27:10.648Z,95.63
2019-05-15T04:28:09.992Z,101.25
2019-05-15T04:29:09.890Z,106.88
2019-05-15T04:30:10.668Z,112.50
2019-05-15T04:31:09.650Z,118.13
2019-05-15T04:32:10.602Z,123.75
2019-05-15T04:33:10.023Z,123.75
2019-05-15T04:34:09.421Z,129.38
2019-05-15T04:35:09.858Z,129.38
2019-05-15T04:36:09.977Z,135.00
2019-05-15T04:37:09.633Z,135.00
2019-05-15T04:38:09.695Z,140.63
2019-05-15T04:39:10.007Z,146.25
2019-05-15T04:40:09.765Z,146.25
2019-05-15T04:41:09.982Z,151.88
2019-05-15T04:42:09.346Z,157.50
2019-05-15T04:43:10.646Z,157.50
2019-05-15T04:44:10.303Z,163.13
2019-05-15T04:45:10.410Z,163.13
2019-05-15T04:46:10.071Z,163.13
2019-05-15T04:47:09.898Z,163.13
2019-05-15T04:48:10.404Z,163.13
2019-05-15T04:49:09.450Z,168.75
2019-05-15T04:50:09.573Z,168.75
2019-05-15T04:51:09.974Z,168.75
2019-05-15T04:52:10.359Z,174.38
2019-05-15T04:53:10.546Z,174.38
2019-05-15T04:54:09.766Z,174.38
2019-05-15T04:55:10.550Z,174.38
2019-05-15T04:56:09.650Z,168.75
2019-05-15T04:57:09.474Z,168.75
2019-05-15T04:58:10.207Z,163.13
2019-05-15T04:59:10.141Z,163.13
2019-05-15T05:00:09.840Z,163.13
2019-05-15T05:01:09.679Z,157.50
2019-05-15T05:02:17.424Z,157.50
2019-05-15T05:03:09.996Z,157.50
2019-05-15T05:04:09.532Z,157.50
2019-05-15T05:05:10.154Z,157.50
2019-05-15T05:06:09.924Z,157.50
2019-05-15T05:07:09.572Z,163.13
2019-05-15T05:08:09.428Z,163.13
2019-05-15T05:09:09.414Z,168.75
2019-05-15T05:10:09.871Z,174.38
2019-05-15T05:11:09.921Z,180.00
2019-05-15T05:12:09.072Z,180.00
2019-05-15T05:13:09.196Z,180.00
2019-05-15T05:14:09.051Z,180.00
2019-05-15T05:15:09.047Z,180.00
2019-05-15T05:16:09.671Z,180.00
2019-05-15T05:17:09.502Z,185.63
2019-05-15T05:18:09.656Z,185.63
2019-05-15T05:19:09.163Z,185.63
2019-05-15T05:20:09.000Z,185.63
2019-05-15T05:21:08.991Z,185.63
2019-05-15T05:22:08.982Z,185.63
2019-05-15T05:23:08.975Z,185.63
2019-05-15T05:24:08.971Z,185.63
2019-05-15T05:25:08.954Z,191.25
2019-05-15T05:26:11.234Z,191.25
2019-05-15T05:27:08.937Z,191.25
2019-05-15T05:28:08.928Z,196.88
2019-05-15T05:29:08.921Z,196.88
2019-05-15T05:30:08.911Z,202.50
2019-05-15T05:31:08.904Z,202.50
2019-05-15T05:32:09.268Z,208.13
2019-05-15T05:33:08.887Z,208.13
2019-05-15T05:34:08.878Z,213.75
2019-05-15T05:35:08.869Z,213.75
2019-05-15T05:36:08.868Z,219.38
2019-05-15T05:37:08.853Z,219.38
2019-05-15T05:38:08.842Z,225.00
2019-05-15T05:39:11.413Z,225.00
2019-05-15T05:40:08.830Z,230.63
2019-05-15T05:41:08.816Z,236.25
2019-05-15T05:42:08.807Z,241.88
2019-05-15T05:43:09.420Z,247.50
2019-05-15T05:44:08.795Z,253.13
2019-05-15T05:45:09.528Z,253.13
2019-05-15T05:46:09.398Z,253.13
2019-05-15T05:47:09.283Z,264.38
2019-05-15T05:48:08.981Z,270.00
2019-05-15T05:49:08.749Z,281.25
2019-05-15T05:50:08.739Z,286.88
2019-05-15T05:51:09.439Z,292.50
2019-05-15T05:52:08.726Z,298.13
2019-05-15T05:53:08.930Z,315.00
2019-05-15T05:54:08.707Z,320.63
2019-05-15T05:55:09.089Z,331.88
2019-05-15T05:56:09.113Z,348.75
2019-05-15T05:57:09.079Z,360.00
2019-05-15T05:58:08.675Z,360.00
2019-05-15T05:59:09.377Z,354.38
2019-05-15T06:00:09.339Z,343.13
2019-05-15T06:01:09.265Z,337.50
2019-05-15T06:02:08.639Z,343.13
2019-05-15T06:03:08.882Z,354.38
2019-05-15T06:04:08.624Z,354.38
2019-05-15T06:05:08.619Z,343.13
2019-05-15T06:06:09.708Z,348.75
2019-05-15T06:07:13.856Z,354.38
2019-05-15T06:08:08.595Z,348.75
2019-05-15T06:09:09.212Z,348.75
2019-05-15T06:10:08.995Z,343.13
2019-05-15T06:11:09.721Z,343.13
2019-05-15T06:12:08.568Z,348.75
2019-05-15T06:13:08.856Z,360.00
2019-05-15T06:14:08.850Z,354.38
2019-05-15T06:15:09.053Z,354.38
2019-05-15T06:16:08.679Z,360.00
2019-05-15T06:17:08.540Z,371.25
2019-05-15T06:18:08.516Z,382.50
2019-05-15T06:19:08.507Z,399.38
2019-05-15T06:20:08.527Z,388.13
2019-05-15T06:21:09.222Z,393.75
2019-05-15T06:22:08.874Z,427.50
2019-05-15T06:23:08.571Z,455.63
2019-05-15T06:24:13.161Z,478.13
2019-05-15T06:25:11.222Z,405.00
2019-05-15T06:26:09.367Z,410.63
2019-05-15T06:27:08.447Z,393.75
2019-05-15T06:28:09.113Z,393.75
2019-05-15T06:29:08.958Z,405.00
2019-05-15T06:30:08.934Z,405.00
2019-05-15T06:31:08.862Z,405.00
2019-05-15T06:32:08.410Z,410.63
2019-05-15T06:33:12.776Z,405.00
2019-05-15T06:34:08.444Z,399.38
2019-05-15T06:35:08.788Z,393.75
2019-05-15T06:36:09.019Z,393.75
2019-05-15T06:37:08.483Z,393.75
2019-05-15T06:38:08.605Z,393.75
2019-05-15T06:39:08.619Z,399.38
2019-05-15T06:40:08.645Z,405.00
2019-05-15T06:41:08.854Z,410.63
2019-05-15T06:42:08.784Z,427.50
2019-05-15T06:43:08.759Z,438.75
2019-05-15T06:44:08.333Z,455.63
2019-05-15T06:45:08.332Z,472.50
2019-05-15T06:46:09.214Z,495.00
2019-05-15T06:47:08.305Z,517.50
2019-05-15T06:48:09.480Z,534.38
2019-05-15T06:49:08.515Z,551.25
2019-05-15T06:50:08.683Z,568.13
2019-05-15T06:51:08.867Z,590.63
2019-05-15T06:52:08.845Z,613.13
2019-05-15T06:53:10.676Z,641.25
2019-05-15T06:54:08.867Z,686.25
2019-05-15T06:55:09.088Z,753.75
2019-05-15T06:56:08.255Z,855.00
2019-05-15T06:57:09.051Z,905.63
2019-05-15T06:58:09.209Z,961.88
2019-05-15T06:59:08.788Z,877.50
2019-05-15T07:00:08.554Z,916.88
2019-05-15T07:01:08.881Z,1046.25
2019-05-15T07:02:08.212Z,1383.75
2019-05-15T07:03:20.130Z,1575.00
2019-05-15T07:04:08.484Z,1698.75
2019-05-15T07:05:08.277Z,1558.13
2019-05-15T07:06:09.430Z,1260.00
2019-05-15T07:07:11.022Z,1327.50
2019-05-15T07:08:09.090Z,1445.63
2019-05-15T07:09:09.490Z,1659.38
2019-05-15T07:10:09.000Z,2103.75
2019-05-15T07:11:08.758Z,2272.50
2019-05-15T07:12:08.159Z,2351.25
2019-05-15T07:13:08.867Z,2430.00
2019-05-15T07:14:08.825Z,2008.13
2019-05-15T07:15:09.065Z,2311.88
2019-05-15T07:16:08.398Z,1800.00
2019-05-15T07:17:09.126Z,1147.50
2019-05-15T07:18:08.739Z,1726.88
2019-05-15T07:19:08.402Z,1395.00
2019-05-15T07:20:08.665Z,1878.75
2019-05-15T07:21:10.226Z,1237.50
2019-05-15T07:22:09.327Z,1271.25
2019-05-15T07:23:08.844Z,2525.63
2019-05-15T07:24:09.181Z,2345.63
2019-05-15T07:25:08.898Z,2255.63
2019-05-15T07:26:09.439Z,2835.00
2019-05-15T07:27:08.102Z,2756.25
2019-05-15T07:28:08.777Z,2756.25
2019-05-15T07:29:08.097Z,2716.88
2019-05-15T07:30:11.249Z,2829.38
2019-05-15T07:31:11.657Z,2981.25
2019-05-15T07:32:08.190Z,2047.50
2019-05-15T07:33:08.796Z,2863.13
2019-05-15T07:34:08.463Z,3133.13
2019-05-15T07:35:08.522Z,3093.75
2019-05-15T07:36:08.531Z,3183.75
2019-05-15T07:37:09.701Z,3054.38
2019-05-15T07:38:08.154Z,2694.38
2019-05-15T07:39:08.428Z,1788.75
2019-05-15T07:40:08.438Z,2075.63
2019-05-15T07:41:10.129Z,2638.13
2019-05-15T07:42:08.591Z,2880.00
2019-05-15T07:43:09.352Z,2913.75
2019-05-15T07:44:08.073Z,2677.50
2019-05-15T07:45:08.344Z,2750.63
2019-05-15T07:46:08.562Z,2891.25
2019-05-15T07:47:08.900Z,2863.13
2019-05-15T07:48:09.172Z,3144.38
2019-05-15T07:49:09.031Z,2874.38
2019-05-15T07:50:08.746Z,2075.63
2019-05-15T07:51:11.567Z,2295.00
2019-05-15T07:52:08.610Z,2356.88
2019-05-15T07:53:08.774Z,1833.75
2019-05-15T07:54:09.156Z,1260.00
2019-05-15T07:55:08.772Z,1558.13
2019-05-15T07:56:11.816Z,1530.00
2019-05-15T07:57:08.970Z,1383.75
2019-05-15T07:58:08.586Z,1693.13
2019-05-15T07:59:08.172Z,1254.38
2019-05-15T08:00:08.335Z,1085.63
2019-05-15T08:01:10.074Z,961.88
2019-05-15T08:02:08.494Z,1288.13
2019-05-15T08:03:10.341Z,1254.38
2019-05-15T08:04:22.652Z,1586.25
2019-05-15T08:05:08.429Z,1057.50
2019-05-15T08:06:08.774Z,1243.13
2019-05-15T08:07:09.147Z,1125.00
2019-05-15T08:08:08.819Z,821.25
2019-05-15T08:09:08.489Z,793.13
2019-05-15T08:10:08.684Z,1023.75
2019-05-15T08:11:17.446Z,1040.63
2019-05-15T08:12:08.369Z,956.25
2019-05-15T08:13:08.881Z,793.13
2019-05-15T08:14:08.969Z,725.63
2019-05-15T08:15:08.852Z,720.00
2019-05-15T08:16:08.622Z,669.38
2019-05-15T08:17:08.707Z,669.38
2019-05-15T08:19:08.613Z,1164.38
2019-05-15T08:20:09.035Z,787.50
2019-05-15T08:21:08.950Z,635.63
2019-05-15T08:22:08.908Z,579.38
2019-05-15T08:23:08.514Z,556.88
2019-05-15T08:24:08.645Z,540.00
2019-05-15T08:25:13.100Z,534.38
2019-05-15T08:26:05.719Z,697.50
2019-05-15T08:26:08.807Z,562.50
2019-05-15T08:27:08.343Z,607.50
2019-05-15T08:28:08.817Z,472.50
2019-05-15T08:29:08.481Z,461.25
2019-05-15T08:30:08.921Z,478.13
2019-05-15T08:31:10.071Z,528.75
2019-05-15T08:32:08.430Z,596.25
2019-05-15T08:33:08.449Z,590.63
2019-05-15T08:34:15.350Z,658.13
2019-05-15T08:35:08.120Z,624.38
2019-05-15T08:36:08.497Z,652.50
2019-05-15T08:37:08.056Z,765.00
2019-05-15T08:38:08.780Z,843.75
2019-05-15T08:39:08.522Z,804.38
2019-05-15T08:40:08.554Z,888.75
2019-05-15T08:41:11.433Z,826.88
2019-05-15T08:42:08.109Z,956.25
2019-05-15T08:43:11.412Z,928.13
2019-05-15T08:44:08.737Z,900.00
2019-05-15T08:45:09.185Z,877.50
2019-05-15T08:46:08.443Z,860.63
2019-05-15T08:47:08.228Z,770.63
2019-05-15T08:48:09.393Z,815.63
2019-05-15T08:49:09.139Z,759.38
2019-05-15T08:50:08.818Z,641.25
2019-05-15T08:51:08.763Z,618.75
2019-05-15T08:52:10.275Z,731.25
2019-05-15T08:53:08.389Z,866.25
2019-05-15T08:54:08.485Z,916.88
2019-05-15T08:55:08.562Z,838.13
2019-05-15T08:56:08.560Z,804.38
2019-05-15T08:57:08.519Z,787.50
2019-05-15T08:58:13.624Z,776.25
2019-05-15T08:59:08.869Z,742.50
2019-05-15T09:00:09.764Z,725.63
2019-05-15T09:01:09.711Z,765.00
2019-05-15T09:02:08.000Z,776.25
2019-05-15T09:03:08.695Z,759.38
2019-05-15T09:04:08.984Z,759.38
2019-05-15T09:05:08.627Z,759.38
2019-05-15T09:06:09.082Z,742.50
2019-05-15T09:07:09.162Z,720.00
2019-05-15T09:08:09.269Z,708.75
2019-05-15T09:09:09.565Z,697.50
2019-05-15T09:10:09.009Z,680.63
2019-05-15T09:11:08.787Z,652.50
2019-05-15T09:12:08.410Z,635.63
2019-05-15T09:13:09.649Z,618.75
2019-05-15T09:14:08.265Z,618.75
2019-05-15T09:15:07.852Z,596.25
2019-05-15T09:16:08.364Z,585.00
2019-05-15T09:17:08.679Z,568.13
2019-05-15T09:18:15.044Z,551.25
2019-05-15T09:19:08.405Z,540.00
2019-05-15T09:20:08.212Z,528.75
2019-05-15T09:21:08.861Z,523.13
2019-05-15T09:22:09.188Z,517.50
2019-05-15T09:23:08.992Z,534.38
2019-05-15T09:24:09.382Z,545.63
2019-05-15T09:25:08.959Z,556.88
2019-05-15T09:26:09.178Z,568.13
2019-05-15T09:27:09.824Z,556.88
2019-05-15T09:28:08.642Z,540.00
2019-05-15T09:29:09.391Z,523.13
2019-05-15T09:30:08.771Z,506.25
2019-05-15T09:31:08.408Z,495.00
2019-05-15T09:32:08.598Z,495.00
2019-05-15T09:33:08.695Z,495.00
2019-05-15T09:34:09.103Z,495.00
2019-05-15T09:35:08.322Z,500.63
2019-05-15T09:36:09.073Z,506.25
2019-05-15T09:37:08.593Z,523.13
2019-05-15T09:38:08.701Z,540.00
2019-05-15T09:39:08.711Z,551.25
2019-05-15T09:40:08.844Z,556.88
2019-05-15T09:41:09.004Z,551.25
2019-05-15T09:42:08.447Z,545.63
2019-05-15T09:43:10.926Z,534.38
2019-05-15T09:44:08.071Z,528.75
2019-05-15T09:45:08.958Z,523.13
2019-05-15T09:46:10.301Z,511.88
2019-05-15T09:47:09.162Z,500.63
2019-05-15T09:48:10.091Z,500.63
2019-05-15T09:49:08.859Z,506.25
2019-05-15T09:50:08.502Z,511.88
2019-05-15T09:51:09.274Z,523.13
2019-05-15T09:52:09.037Z,534.38
2019-05-15T09:53:09.269Z,540.00
2019-05-15T09:54:08.100Z,556.88
2019-05-15T09:55:08.585Z,579.38
2019-05-15T09:56:08.099Z,579.38
2019-05-15T09:57:10.670Z,585.00
2019-05-15T09:58:08.255Z,585.00
2019-05-15T09:59:08.859Z,590.63
2019-05-15T10:00:08.975Z,573.75
2019-05-15T10:01:08.566Z,556.88
2019-05-15T10:02:09.237Z,545.63
2019-05-15T10:03:09.559Z,534.38
2019-05-15T10:04:08.319Z,517.50
2019-05-15T10:05:11.241Z,523.13
2019-05-15T10:06:08.181Z,540.00
2019-05-15T10:07:08.257Z,568.13
2019-05-15T10:08:08.938Z,596.25
2019-05-15T10:09:09.115Z,607.50
2019-05-15T10:10:08.716Z,618.75
2019-05-15T10:11:09.096Z,635.63
2019-05-15T10:12:09.132Z,641.25
2019-05-15T10:13:09.056Z,630.00
2019-05-15T10:14:09.851Z,607.50
2019-05-15T10:15:11.244Z,568.13
2019-05-15T10:16:08.404Z,562.50
2019-05-15T10:17:09.152Z,556.88
2019-05-15T10:18:09.868Z,556.88
2019-05-15T10:19:09.000Z,551.25
2019-05-15T10:20:09.111Z,556.88
2019-05-15T10:21:09.035Z,568.13
2019-05-15T10:22:09.757Z,579.38
2019-05-15T10:23:08.756Z,596.25
2019-05-15T10:24:09.476Z,613.13
2019-05-15T10:25:08.372Z,624.38
2019-05-15T10:26:13.875Z,630.00
2019-05-15T10:27:08.777Z,646.88
2019-05-15T10:28:09.730Z,652.50
2019-05-15T10:29:09.122Z,669.38
2019-05-15T10:30:09.155Z,663.75
2019-05-15T10:31:09.432Z,663.75
2019-05-15T10:32:08.649Z,635.63
2019-05-15T10:33:08.525Z,618.75
2019-05-15T10:34:09.204Z,630.00
2019-05-15T10:35:24.112Z,635.63
2019-05-15T10:36:08.475Z,646.88
2019-05-15T10:37:08.416Z,641.25
2019-05-15T10:38:08.755Z,613.13
2019-05-15T10:39:08.347Z,585.00
2019-05-15T10:40:09.068Z,573.75
2019-05-15T10:41:13.828Z,568.13
2019-05-15T10:42:08.190Z,556.88
2019-05-15T10:43:09.037Z,534.38
2019-05-15T10:44:09.066Z,506.25
2019-05-15T10:45:08.366Z,489.38
2019-05-15T10:46:13.373Z,478.13
2019-05-15T10:47:08.822Z,461.25
2019-05-15T10:48:09.337Z,433.13
2019-05-15T10:49:08.609Z,416.25
2019-05-15T10:50:07.985Z,410.63
2019-05-15T10:51:10.197Z,405.00
2019-05-15T10:52:08.683Z,410.63
2019-05-15T10:53:10.931Z,416.25
2019-05-15T10:54:08.516Z,421.88
2019-05-15T10:55:09.179Z,427.50
2019-05-15T10:56:08.885Z,433.13
2019-05-15T10:57:08.679Z,433.13
2019-05-15T10:58:16.552Z,438.75
2019-05-15T10:59:08.572Z,450.00
2019-05-15T11:00:07.960Z,461.25
2019-05-15T11:01:11.048Z,466.88
2019-05-15T11:02:08.557Z,472.50
2019-05-15T11:03:08.857Z,478.13
2019-05-15T11:04:09.263Z,478.13
2019-05-15T11:05:09.341Z,478.13
2019-05-15T11:06:09.028Z,483.75
2019-05-15T11:07:09.669Z,489.38
2019-05-15T11:08:08.288Z,506.25
2019-05-15T11:09:08.409Z,528.75
2019-05-15T11:10:08.605Z,540.00
2019-05-15T11:11:09.162Z,540.00
2019-05-15T11:12:08.692Z,523.13
2019-05-15T11:13:08.973Z,511.88
2019-05-15T11:14:09.107Z,506.25
2019-05-15T11:15:10.974Z,500.63
2019-05-15T11:16:07.397Z,495.00
2019-05-15T11:17:07.395Z,489.38
2019-05-15T11:18:09.257Z,483.75
2019-05-15T11:19:07.989Z,483.75
2019-05-15T11:20:08.355Z,489.38
2019-05-15T11:21:08.245Z,489.38
2019-05-15T11:22:09.048Z,483.75
2019-05-15T11:23:08.082Z,478.13
2019-05-15T11:24:08.753Z,478.13
2019-05-15T11:25:09.810Z,466.88
2019-05-15T11:26:08.752Z,461.25
2019-05-15T11:27:09.991Z,461.25
2019-05-15T11:28:08.196Z,466.88
2019-05-15T11:29:09.610Z,478.13
2019-05-15T11:30:07.753Z,489.38
2019-05-15T11:31:10.352Z,495.00
2019-05-15T11:32:08.827Z,495.00
2019-05-15T11:33:09.536Z,489.38
2019-05-15T11:34:09.374Z,478.13
2019-05-15T11:35:07.339Z,478.13
2019-05-15T11:36:07.340Z,478.13
2019-05-15T11:37:07.342Z,478.13
2019-05-15T11:38:10.085Z,472.50
2019-05-15T11:39:08.414Z,472.50
2019-05-15T11:40:09.988Z,472.50
2019-05-15T11:41:08.760Z,478.13
2019-05-15T11:42:08.929Z,483.75
2019-05-15T11:43:08.476Z,495.00
2019-05-15T11:44:07.313Z,517.50
2019-05-15T11:45:07.311Z,528.75
2019-05-15T11:46:09.696Z,534.38
2019-05-15T11:47:07.302Z,545.63
2019-05-15T11:48:08.979Z,545.63
2019-05-15T11:49:09.377Z,528.75
2019-05-15T11:50:08.426Z,517.50
2019-05-15T11:51:09.537Z,506.25
2019-05-15T11:52:08.753Z,495.00
2019-05-15T11:53:08.782Z,483.75
2019-05-15T11:54:08.190Z,483.75
2019-05-15T11:55:08.342Z,495.00
2019-05-15T11:56:09.494Z,506.25
2019-05-15T11:57:08.553Z,517.50
2019-05-15T11:58:09.349Z,534.38
2019-05-15T11:59:08.503Z,545.63
2019-05-15T12:00:15.099Z,551.25
2019-05-15T12:01:08.623Z,545.63
2019-05-15T12:02:08.542Z,528.75
2019-05-15T12:03:09.034Z,511.88
2019-05-15T12:04:09.208Z,495.00
2019-05-15T12:05:09.261Z,483.75
2019-05-15T12:06:15.844Z,478.13
2019-05-15T12:07:08.736Z,472.50
2019-05-15T12:08:09.043Z,472.50
2019-05-15T12:09:09.157Z,472.50
2019-05-15T12:10:10.505Z,478.13
2019-05-15T12:11:11.958Z,483.75
2019-05-15T12:12:08.804Z,495.00
2019-05-15T12:13:09.767Z,500.63
2019-05-15T12:14:08.483Z,511.88
2019-05-15T12:15:07.217Z,511.88
2019-05-15T12:16:07.244Z,517.50
2019-05-15T12:17:15.001Z,528.75
2019-05-15T12:18:08.793Z,545.63
2019-05-15T12:19:16.637Z,545.63
2019-05-15T12:20:10.528Z,545.63
2019-05-15T12:21:07.199Z,540.00
2019-05-15T12:22:07.195Z,534.38
2019-05-15T12:23:08.987Z,528.75
2019-05-15T12:24:08.999Z,517.50
2019-05-15T12:25:09.803Z,511.88
2019-05-15T12:26:09.100Z,511.88
2019-05-15T12:27:15.340Z,506.25
2019-05-15T12:28:09.471Z,506.25
2019-05-15T12:29:09.888Z,506.25
2019-05-15T12:30:09.952Z,500.63
2019-05-15T12:31:08.970Z,506.25
2019-05-15T12:32:23.519Z,517.50
2019-05-15T12:33:09.210Z,528.75
2019-05-15T12:34:09.078Z,528.75
2019-05-15T12:35:07.180Z,523.13
2019-05-15T12:36:10.504Z,517.50
2019-05-15T12:37:09.790Z,511.88
2019-05-15T12:38:10.082Z,506.25
2019-05-15T13:00:07.574Z,433.13
2019-05-15T13:01:17.542Z,433.13